sensor_id;sensor_type;location;lat;lon;timestamp;P1;durP1;ratioP1;P2;durP2;ratioP2
6985;SDS011;3533;51.246;6.850;2022-09-30T00:02:24;2.40;;;2.30;;
6985;SDS011;3533;51.246;6.850;2022-09-30T00:04:49;2.57;;;1.80;;
6985;SDS011;3533;51.246;6.850;2022-09-30T00:07:15;2.33;;;2.17;;
6985;SDS011;3533;51.246;6.850;2022-09-30T00:09:41;1.97;;;1.87;;
6985;SDS011;3533;51.246;6.850;2022-09-30T00:12:07;2.07;;;1.97;;
6985;SDS011;3533;51.246;6.850;2022-09-30T00:14:32;1.93;;;1.83;;
6985;SDS011;3533;51.246;6.850;2022-09-30T00:16:58;2.00;;;1.80;;
6985;SDS011;3533;51.246;6.850;2022-09-30T00:19:23;1.97;;;1.87;;
6985;SDS011;3533;51.246;6.850;2022-09-30T00:21:49;2.00;;;1.90;;
6985;SDS011;3533;51.246;6.850;2022-09-30T00:24:15;3.60;;;2.30;;
6985;SDS011;3533;51.246;6.850;2022-09-30T00:26:40;2.13;;;2.03;;
6985;SDS011;3533;51.246;6.850;2022-09-30T00:29:06;2.10;;;2.00;;
6985;SDS011;3533;51.246;6.850;2022-09-30T00:31:32;2.17;;;2.03;;
6985;SDS011;3533;51.246;6.850;2022-09-30T00:33:59;2.20;;;2.10;;
6985;SDS011;3533;51.246;6.850;2022-09-30T00:39:04;2.30;;;2.20;;
6985;SDS011;3533;51.246;6.850;2022-09-30T00:41:32;2.47;;;2.30;;
6985;SDS011;3533;51.246;6.850;2022-09-30T00:43:58;2.17;;;2.07;;
6985;SDS011;3533;51.246;6.850;2022-09-30T00:46:30;2.30;;;2.03;;
6985;SDS011;3533;51.246;6.850;2022-09-30T00:49:11;2.10;;;2.00;;
6985;SDS011;3533;51.246;6.850;2022-09-30T00:51:40;2.10;;;1.90;;
6985;SDS011;3533;51.246;6.850;2022-09-30T00:54:13;2.27;;;2.13;;
6985;SDS011;3533;51.246;6.850;2022-09-30T00:56:45;2.03;;;1.93;;
6985;SDS011;3533;51.246;6.850;2022-09-30T00:59:19;2.10;;;2.00;;
6985;SDS011;3533;51.246;6.850;2022-09-30T01:01:51;2.70;;;2.20;;
6985;SDS011;3533;51.246;6.850;2022-09-30T01:04:18;2.00;;;1.90;;
6985;SDS011;3533;51.246;6.850;2022-09-30T01:06:46;1.90;;;1.80;;
6985;SDS011;3533;51.246;6.850;2022-09-30T01:09:12;2.30;;;2.20;;
6985;SDS011;3533;51.246;6.850;2022-09-30T01:11:38;1.97;;;1.87;;
6985;SDS011;3533;51.246;6.850;2022-09-30T01:14:15;1.90;;;1.80;;
6985;SDS011;3533;51.246;6.850;2022-09-30T01:17:06;2.10;;;2.00;;
6985;SDS011;3533;51.246;6.850;2022-09-30T01:27:42;2.20;;;2.10;;
6985;SDS011;3533;51.246;6.850;2022-09-30T01:41:49;2.03;;;1.93;;
6985;SDS011;3533;51.246;6.850;2022-09-30T01:44:42;3.00;;;2.10;;
6985;SDS011;3533;51.246;6.850;2022-09-30T01:47:26;1.80;;;1.70;;
6985;SDS011;3533;51.246;6.850;2022-09-30T01:50:05;1.90;;;1.70;;
6985;SDS011;3533;51.246;6.850;2022-09-30T01:58:18;2.00;;;1.90;;
6985;SDS011;3533;51.246;6.850;2022-09-30T02:00:51;2.20;;;2.10;;
6985;SDS011;3533;51.246;6.850;2022-09-30T02:03:21;1.80;;;1.70;;
6985;SDS011;3533;51.246;6.850;2022-09-30T02:06:00;2.03;;;1.93;;
6985;SDS011;3533;51.246;6.850;2022-09-30T02:11:08;1.90;;;1.80;;
6985;SDS011;3533;51.246;6.850;2022-09-30T02:16:42;1.80;;;1.70;;
6985;SDS011;3533;51.246;6.850;2022-09-30T02:19:17;2.00;;;1.90;;
6985;SDS011;3533;51.246;6.850;2022-09-30T02:21:49;1.83;;;1.73;;
6985;SDS011;3533;51.246;6.850;2022-09-30T02:24:20;1.70;;;1.60;;
6985;SDS011;3533;51.246;6.850;2022-09-30T02:26:49;1.70;;;1.60;;
6985;SDS011;3533;51.246;6.850;2022-09-30T02:29:26;1.70;;;1.60;;
6985;SDS011;3533;51.246;6.850;2022-09-30T02:31:58;1.80;;;1.70;;
6985;SDS011;3533;51.246;6.850;2022-09-30T02:34:33;1.93;;;1.83;;
6985;SDS011;3533;51.246;6.850;2022-09-30T02:37:08;1.87;;;1.77;;
6985;SDS011;3533;51.246;6.850;2022-09-30T02:42:25;2.03;;;1.93;;
6985;SDS011;3533;51.246;6.850;2022-09-30T02:44:53;2.00;;;1.90;;
6985;SDS011;3533;51.246;6.850;2022-09-30T02:50:35;1.87;;;1.77;;
6985;SDS011;3533;51.246;6.850;2022-09-30T02:55:40;1.90;;;1.80;;
6985;SDS011;3533;51.246;6.850;2022-09-30T02:58:30;1.90;;;1.80;;
6985;SDS011;3533;51.246;6.850;2022-09-30T03:00:58;1.70;;;1.60;;
6985;SDS011;3533;51.246;6.850;2022-09-30T03:03:28;1.90;;;1.80;;
6985;SDS011;3533;51.246;6.850;2022-09-30T03:05:58;1.63;;;1.53;;
6985;SDS011;3533;51.246;6.850;2022-09-30T03:08:24;1.77;;;1.67;;
6985;SDS011;3533;51.246;6.850;2022-09-30T03:10:50;1.90;;;1.80;;
6985;SDS011;3533;51.246;6.850;2022-09-30T03:19:31;1.60;;;1.50;;
6985;SDS011;3533;51.246;6.850;2022-09-30T03:27:52;1.80;;;1.70;;
6985;SDS011;3533;51.246;6.850;2022-09-30T03:30:31;1.77;;;1.67;;
6985;SDS011;3533;51.246;6.850;2022-09-30T03:38:44;1.97;;;1.87;;
6985;SDS011;3533;51.246;6.850;2022-09-30T03:41:43;2.00;;;1.80;;
6985;SDS011;3533;51.246;6.850;2022-09-30T03:44:22;1.80;;;1.70;;
6985;SDS011;3533;51.246;6.850;2022-09-30T03:47:02;2.10;;;1.90;;
6985;SDS011;3533;51.246;6.850;2022-09-30T03:49:51;1.90;;;1.80;;
6985;SDS011;3533;51.246;6.850;2022-09-30T03:52:19;1.70;;;1.60;;
6985;SDS011;3533;51.246;6.850;2022-09-30T03:54:57;1.80;;;1.70;;
6985;SDS011;3533;51.246;6.850;2022-09-30T03:57:25;2.33;;;2.13;;
6985;SDS011;3533;51.246;6.850;2022-09-30T03:59:52;1.93;;;1.83;;
6985;SDS011;3533;51.246;6.850;2022-09-30T04:02:18;1.93;;;1.83;;
6985;SDS011;3533;51.246;6.850;2022-09-30T04:04:44;1.97;;;1.87;;
6985;SDS011;3533;51.246;6.850;2022-09-30T04:07:09;2.50;;;2.30;;
6985;SDS011;3533;51.246;6.850;2022-09-30T04:09:36;1.80;;;1.70;;
6985;SDS011;3533;51.246;6.850;2022-09-30T04:12:02;1.83;;;1.73;;
6985;SDS011;3533;51.246;6.850;2022-09-30T04:14:28;2.03;;;1.93;;
6985;SDS011;3533;51.246;6.850;2022-09-30T04:16:54;1.87;;;1.77;;
6985;SDS011;3533;51.246;6.850;2022-09-30T04:19:19;1.97;;;1.87;;
6985;SDS011;3533;51.246;6.850;2022-09-30T04:21:45;2.03;;;1.93;;
6985;SDS011;3533;51.246;6.850;2022-09-30T04:24:11;1.90;;;1.80;;
6985;SDS011;3533;51.246;6.850;2022-09-30T04:26:36;2.07;;;1.97;;
6985;SDS011;3533;51.246;6.850;2022-09-30T04:29:02;1.93;;;1.83;;
6985;SDS011;3533;51.246;6.850;2022-09-30T04:31:27;1.93;;;1.83;;
6985;SDS011;3533;51.246;6.850;2022-09-30T04:33:53;1.43;;;1.33;;
6985;SDS011;3533;51.246;6.850;2022-09-30T04:36:21;1.73;;;1.63;;
6985;SDS011;3533;51.246;6.850;2022-09-30T04:38:46;1.90;;;1.80;;
6985;SDS011;3533;51.246;6.850;2022-09-30T04:41:13;1.80;;;1.70;;
6985;SDS011;3533;51.246;6.850;2022-09-30T04:43:42;1.90;;;1.80;;
6985;SDS011;3533;51.246;6.850;2022-09-30T04:46:10;2.10;;;2.00;;
6985;SDS011;3533;51.246;6.850;2022-09-30T04:48:36;1.90;;;1.80;;
6985;SDS011;3533;51.246;6.850;2022-09-30T04:51:02;2.00;;;1.90;;
6985;SDS011;3533;51.246;6.850;2022-09-30T04:53:28;1.60;;;1.50;;
6985;SDS011;3533;51.246;6.850;2022-09-30T04:55:58;1.93;;;1.83;;
6985;SDS011;3533;51.246;6.850;2022-09-30T04:58:25;3.33;;;1.93;;
6985;SDS011;3533;51.246;6.850;2022-09-30T05:00:58;1.60;;;1.50;;
6985;SDS011;3533;51.246;6.850;2022-09-30T05:03:25;1.87;;;1.77;;
6985;SDS011;3533;51.246;6.850;2022-09-30T05:05:50;1.90;;;1.80;;
6985;SDS011;3533;51.246;6.850;2022-09-30T05:08:16;1.93;;;1.83;;
6985;SDS011;3533;51.246;6.850;2022-09-30T05:10:41;1.70;;;1.60;;
6985;SDS011;3533;51.246;6.850;2022-09-30T05:13:07;1.90;;;1.80;;
6985;SDS011;3533;51.246;6.850;2022-09-30T05:15:33;2.13;;;1.93;;
6985;SDS011;3533;51.246;6.850;2022-09-30T05:17:59;2.07;;;1.97;;
6985;SDS011;3533;51.246;6.850;2022-09-30T05:20:25;1.80;;;1.60;;
6985;SDS011;3533;51.246;6.850;2022-09-30T05:22:54;1.73;;;1.63;;
6985;SDS011;3533;51.246;6.850;2022-09-30T05:25:20;1.90;;;1.80;;
6985;SDS011;3533;51.246;6.850;2022-09-30T05:27:47;2.20;;;1.67;;
6985;SDS011;3533;51.246;6.850;2022-09-30T05:30:14;1.70;;;1.60;;
6985;SDS011;3533;51.246;6.850;2022-09-30T05:32:39;2.13;;;1.93;;
6985;SDS011;3533;51.246;6.850;2022-09-30T05:35:05;2.07;;;1.70;;
6985;SDS011;3533;51.246;6.850;2022-09-30T05:37:32;2.17;;;1.97;;
6985;SDS011;3533;51.246;6.850;2022-09-30T05:39:58;1.93;;;1.83;;
6985;SDS011;3533;51.246;6.850;2022-09-30T05:42:25;1.90;;;1.80;;
6985;SDS011;3533;51.246;6.850;2022-09-30T05:44:50;1.83;;;1.50;;
6985;SDS011;3533;51.246;6.850;2022-09-30T05:47:16;2.30;;;2.10;;
6985;SDS011;3533;51.246;6.850;2022-09-30T05:49:41;2.00;;;1.77;;
6985;SDS011;3533;51.246;6.850;2022-09-30T05:52:07;2.10;;;1.70;;
6985;SDS011;3533;51.246;6.850;2022-09-30T05:54:32;1.80;;;1.70;;
6985;SDS011;3533;51.246;6.850;2022-09-30T05:56:58;2.00;;;1.90;;
6985;SDS011;3533;51.246;6.850;2022-09-30T05:59:24;2.67;;;2.20;;
6985;SDS011;3533;51.246;6.850;2022-09-30T06:01:50;2.30;;;2.10;;
6985;SDS011;3533;51.246;6.850;2022-09-30T06:04:16;3.50;;;2.03;;
6985;SDS011;3533;51.246;6.850;2022-09-30T06:06:42;2.13;;;2.03;;
6985;SDS011;3533;51.246;6.850;2022-09-30T06:09:07;2.27;;;2.07;;
6985;SDS011;3533;51.246;6.850;2022-09-30T06:11:33;2.43;;;1.80;;
6985;SDS011;3533;51.246;6.850;2022-09-30T06:13:59;1.70;;;1.60;;
6985;SDS011;3533;51.246;6.850;2022-09-30T06:16:24;1.70;;;1.60;;
6985;SDS011;3533;51.246;6.850;2022-09-30T06:18:50;2.70;;;1.90;;
6985;SDS011;3533;51.246;6.850;2022-09-30T06:21:16;1.77;;;1.67;;
6985;SDS011;3533;51.246;6.850;2022-09-30T06:23:42;2.07;;;1.97;;
6985;SDS011;3533;51.246;6.850;2022-09-30T06:26:08;5.83;;;2.20;;
6985;SDS011;3533;51.246;6.850;2022-09-30T06:28:35;1.93;;;1.83;;
6985;SDS011;3533;51.246;6.850;2022-09-30T06:31:02;1.83;;;1.73;;
6985;SDS011;3533;51.246;6.850;2022-09-30T06:33:28;2.03;;;1.93;;
6985;SDS011;3533;51.246;6.850;2022-09-30T06:35:54;5.20;;;2.37;;
6985;SDS011;3533;51.246;6.850;2022-09-30T06:38:19;2.33;;;1.70;;
6985;SDS011;3533;51.246;6.850;2022-09-30T06:40:47;2.30;;;1.70;;
6985;SDS011;3533;51.246;6.850;2022-09-30T06:43:14;2.00;;;1.90;;
6985;SDS011;3533;51.246;6.850;2022-09-30T06:45:40;2.23;;;1.90;;
6985;SDS011;3533;51.246;6.850;2022-09-30T06:48:06;2.10;;;2.00;;
6985;SDS011;3533;51.246;6.850;2022-09-30T06:50:33;1.73;;;1.63;;
6985;SDS011;3533;51.246;6.850;2022-09-30T06:53:00;1.90;;;1.80;;
6985;SDS011;3533;51.246;6.850;2022-09-30T06:55:27;2.10;;;1.90;;
6985;SDS011;3533;51.246;6.850;2022-09-30T06:57:54;2.53;;;2.33;;
6985;SDS011;3533;51.246;6.850;2022-09-30T07:00:20;2.20;;;1.93;;
6985;SDS011;3533;51.246;6.850;2022-09-30T07:02:46;2.23;;;2.00;;
6985;SDS011;3533;51.246;6.850;2022-09-30T07:05:13;2.57;;;2.37;;
6985;SDS011;3533;51.246;6.850;2022-09-30T07:07:39;2.17;;;2.07;;
6985;SDS011;3533;51.246;6.850;2022-09-30T07:10:06;2.40;;;1.73;;
6985;SDS011;3533;51.246;6.850;2022-09-30T07:12:32;2.37;;;2.20;;
6985;SDS011;3533;51.246;6.850;2022-09-30T07:14:58;2.17;;;1.97;;
6985;SDS011;3533;51.246;6.850;2022-09-30T07:17:24;2.40;;;2.20;;
6985;SDS011;3533;51.246;6.850;2022-09-30T07:19:50;2.73;;;2.10;;
6985;SDS011;3533;51.246;6.850;2022-09-30T07:22:16;3.13;;;2.20;;
6985;SDS011;3533;51.246;6.850;2022-09-30T07:24:52;2.27;;;2.07;;
6985;SDS011;3533;51.246;6.850;2022-09-30T07:27:18;2.23;;;2.13;;
6985;SDS011;3533;51.246;6.850;2022-09-30T07:29:45;1.87;;;1.77;;
6985;SDS011;3533;51.246;6.850;2022-09-30T07:32:11;2.37;;;2.17;;
6985;SDS011;3533;51.246;6.850;2022-09-30T07:34:37;1.90;;;1.80;;
6985;SDS011;3533;51.246;6.850;2022-09-30T07:37:07;2.47;;;1.77;;
6985;SDS011;3533;51.246;6.850;2022-09-30T07:39:34;2.17;;;2.07;;
6985;SDS011;3533;51.246;6.850;2022-09-30T07:42:00;3.60;;;1.90;;
6985;SDS011;3533;51.246;6.850;2022-09-30T07:44:28;2.07;;;1.97;;
6985;SDS011;3533;51.246;6.850;2022-09-30T07:46:54;2.33;;;2.13;;
6985;SDS011;3533;51.246;6.850;2022-09-30T07:49:19;1.83;;;1.73;;
6985;SDS011;3533;51.246;6.850;2022-09-30T07:51:49;3.07;;;1.97;;
6985;SDS011;3533;51.246;6.850;2022-09-30T07:54:16;4.30;;;2.10;;
6985;SDS011;3533;51.246;6.850;2022-09-30T07:56:45;2.40;;;2.20;;
6985;SDS011;3533;51.246;6.850;2022-09-30T07:59:10;2.60;;;1.87;;
6985;SDS011;3533;51.246;6.850;2022-09-30T08:01:36;1.80;;;1.70;;
6985;SDS011;3533;51.246;6.850;2022-09-30T08:04:04;2.00;;;1.90;;
6985;SDS011;3533;51.246;6.850;2022-09-30T08:06:34;2.40;;;2.20;;
6985;SDS011;3533;51.246;6.850;2022-09-30T08:09:02;2.47;;;2.27;;
6985;SDS011;3533;51.246;6.850;2022-09-30T08:11:31;1.90;;;1.80;;
6985;SDS011;3533;51.246;6.850;2022-09-30T08:13:58;2.07;;;1.87;;
6985;SDS011;3533;51.246;6.850;2022-09-30T08:16:23;2.00;;;1.87;;
6985;SDS011;3533;51.246;6.850;2022-09-30T08:18:54;1.93;;;1.83;;
6985;SDS011;3533;51.246;6.850;2022-09-30T08:21:20;2.43;;;2.23;;
6985;SDS011;3533;51.246;6.850;2022-09-30T08:23:46;2.37;;;2.17;;
6985;SDS011;3533;51.246;6.850;2022-09-30T08:26:12;1.90;;;1.80;;
6985;SDS011;3533;51.246;6.850;2022-09-30T08:28:39;2.20;;;2.10;;
6985;SDS011;3533;51.246;6.850;2022-09-30T08:31:06;1.70;;;1.60;;
6985;SDS011;3533;51.246;6.850;2022-09-30T08:33:34;2.13;;;2.03;;
6985;SDS011;3533;51.246;6.850;2022-09-30T08:36:01;2.20;;;2.00;;
6985;SDS011;3533;51.246;6.850;2022-09-30T08:38:30;1.77;;;1.63;;
6985;SDS011;3533;51.246;6.850;2022-09-30T08:41:03;2.20;;;2.00;;
6985;SDS011;3533;51.246;6.850;2022-09-30T08:44:07;1.77;;;1.67;;
6985;SDS011;3533;51.246;6.850;2022-09-30T08:46:47;3.83;;;1.93;;
6985;SDS011;3533;51.246;6.850;2022-09-30T08:52:26;1.90;;;1.67;;
6985;SDS011;3533;51.246;6.850;2022-09-30T08:54:53;1.90;;;1.80;;
6985;SDS011;3533;51.246;6.850;2022-09-30T08:57:20;1.93;;;1.60;;
6985;SDS011;3533;51.246;6.850;2022-09-30T08:59:57;1.90;;;1.80;;
6985;SDS011;3533;51.246;6.850;2022-09-30T09:02:30;3.27;;;1.80;;
6985;SDS011;3533;51.246;6.850;2022-09-30T09:05:01;2.33;;;2.13;;
6985;SDS011;3533;51.246;6.850;2022-09-30T09:07:36;1.73;;;1.63;;
6985;SDS011;3533;51.246;6.850;2022-09-30T09:20:20;2.20;;;2.10;;
6985;SDS011;3533;51.246;6.850;2022-09-30T09:22:49;1.83;;;1.57;;
6985;SDS011;3533;51.246;6.850;2022-09-30T09:25:20;1.50;;;1.40;;
6985;SDS011;3533;51.246;6.850;2022-09-30T09:27:53;2.20;;;2.10;;
6985;SDS011;3533;51.246;6.850;2022-09-30T09:30:24;2.00;;;1.90;;
6985;SDS011;3533;51.246;6.850;2022-09-30T09:32:53;2.57;;;2.00;;
6985;SDS011;3533;51.246;6.850;2022-09-30T09:38:03;1.93;;;1.73;;
6985;SDS011;3533;51.246;6.850;2022-09-30T09:46:18;1.80;;;1.70;;
6985;SDS011;3533;51.246;6.850;2022-09-30T09:48:48;1.50;;;1.40;;
6985;SDS011;3533;51.246;6.850;2022-09-30T09:51:31;1.80;;;1.70;;
6985;SDS011;3533;51.246;6.850;2022-09-30T09:54:01;1.87;;;1.77;;
6985;SDS011;3533;51.246;6.850;2022-09-30T09:56:29;1.70;;;1.60;;
6985;SDS011;3533;51.246;6.850;2022-09-30T10:01:32;1.60;;;1.50;;
6985;SDS011;3533;51.246;6.850;2022-09-30T10:04:14;2.17;;;2.07;;
6985;SDS011;3533;51.246;6.850;2022-09-30T10:06:45;3.20;;;1.90;;
6985;SDS011;3533;51.246;6.850;2022-09-30T10:09:23;2.13;;;1.73;;
6985;SDS011;3533;51.246;6.850;2022-09-30T10:14:40;2.30;;;1.97;;
6985;SDS011;3533;51.246;6.850;2022-09-30T10:17:25;1.70;;;1.60;;
6985;SDS011;3533;51.246;6.850;2022-09-30T10:22:29;2.03;;;1.80;;
6985;SDS011;3533;51.246;6.850;2022-09-30T10:25:16;2.20;;;2.10;;
6985;SDS011;3533;51.246;6.850;2022-09-30T10:30:28;1.90;;;1.80;;
6985;SDS011;3533;51.246;6.850;2022-09-30T10:32:54;2.50;;;1.80;;
6985;SDS011;3533;51.246;6.850;2022-09-30T10:35:20;1.60;;;1.50;;
6985;SDS011;3533;51.246;6.850;2022-09-30T10:37:51;1.87;;;1.77;;
6985;SDS011;3533;51.246;6.850;2022-09-30T10:40:18;1.87;;;1.77;;
6985;SDS011;3533;51.246;6.850;2022-09-30T10:42:46;1.87;;;1.77;;
6985;SDS011;3533;51.246;6.850;2022-09-30T10:45:17;1.60;;;1.50;;
6985;SDS011;3533;51.246;6.850;2022-09-30T10:47:47;1.70;;;1.60;;
6985;SDS011;3533;51.246;6.850;2022-09-30T10:50:16;2.23;;;1.80;;
6985;SDS011;3533;51.246;6.850;2022-09-30T10:52:46;1.90;;;1.80;;
6985;SDS011;3533;51.246;6.850;2022-09-30T10:58:02;3.00;;;1.80;;
6985;SDS011;3533;51.246;6.850;2022-09-30T11:00:46;1.87;;;1.77;;
6985;SDS011;3533;51.246;6.850;2022-09-30T11:03:23;1.77;;;1.67;;
6985;SDS011;3533;51.246;6.850;2022-09-30T11:05:54;2.00;;;1.90;;
6985;SDS011;3533;51.246;6.850;2022-09-30T11:08:35;1.97;;;1.80;;
6985;SDS011;3533;51.246;6.850;2022-09-30T11:11:13;2.20;;;1.57;;
6985;SDS011;3533;51.246;6.850;2022-09-30T11:16:40;1.97;;;1.60;;
6985;SDS011;3533;51.246;6.850;2022-09-30T11:19:12;1.90;;;1.80;;
6985;SDS011;3533;51.246;6.850;2022-09-30T11:24:52;1.80;;;1.53;;
6985;SDS011;3533;51.246;6.850;2022-09-30T11:41:16;1.80;;;1.70;;
6985;SDS011;3533;51.246;6.850;2022-09-30T11:44:00;1.47;;;1.37;;
6985;SDS011;3533;51.246;6.850;2022-09-30T11:46:52;1.63;;;1.53;;
6985;SDS011;3533;51.246;6.850;2022-09-30T11:58:11;2.07;;;1.97;;
6985;SDS011;3533;51.246;6.850;2022-09-30T12:00:40;2.30;;;2.20;;
6985;SDS011;3533;51.246;6.850;2022-09-30T12:03:31;3.00;;;2.80;;
6985;SDS011;3533;51.246;6.850;2022-09-30T12:06:02;2.80;;;2.60;;
6985;SDS011;3533;51.246;6.850;2022-09-30T12:08:39;2.30;;;2.20;;
6985;SDS011;3533;51.246;6.850;2022-09-30T12:11:13;2.47;;;2.30;;
6985;SDS011;3533;51.246;6.850;2022-09-30T12:13:51;2.67;;;2.47;;
6985;SDS011;3533;51.246;6.850;2022-09-30T12:16:22;2.90;;;2.70;;
6985;SDS011;3533;51.246;6.850;2022-09-30T12:19:02;2.47;;;2.27;;
6985;SDS011;3533;51.246;6.850;2022-09-30T12:22:21;2.63;;;2.43;;
6985;SDS011;3533;51.246;6.850;2022-09-30T12:24:41;3.57;;;2.43;;
6985;SDS011;3533;51.246;6.850;2022-09-30T12:27:43;3.17;;;2.97;;
6985;SDS011;3533;51.246;6.850;2022-09-30T12:30:13;3.17;;;2.87;;
6985;SDS011;3533;51.246;6.850;2022-09-30T12:46:40;3.27;;;3.07;;
6985;SDS011;3533;51.246;6.850;2022-09-30T12:49:20;3.23;;;3.03;;
6985;SDS011;3533;51.246;6.850;2022-09-30T12:51:51;3.33;;;3.07;;
6985;SDS011;3533;51.246;6.850;2022-09-30T12:56:53;3.30;;;3.10;;
6985;SDS011;3533;51.246;6.850;2022-09-30T12:59:25;4.53;;;3.37;;
6985;SDS011;3533;51.246;6.850;2022-09-30T13:01:53;3.50;;;3.23;;
6985;SDS011;3533;51.246;6.850;2022-09-30T13:04:35;4.80;;;4.33;;
6985;SDS011;3533;51.246;6.850;2022-09-30T13:07:04;3.90;;;3.50;;
6985;SDS011;3533;51.246;6.850;2022-09-30T13:09:34;3.83;;;3.53;;
6985;SDS011;3533;51.246;6.850;2022-09-30T13:12:26;3.73;;;3.47;;
6985;SDS011;3533;51.246;6.850;2022-09-30T13:15:24;3.27;;;3.07;;
6985;SDS011;3533;51.246;6.850;2022-09-30T13:20:48;3.50;;;3.20;;
6985;SDS011;3533;51.246;6.850;2022-09-30T13:28:46;4.73;;;4.40;;
6985;SDS011;3533;51.246;6.850;2022-09-30T13:31:19;3.73;;;3.43;;
6985;SDS011;3533;51.246;6.850;2022-09-30T13:44:31;4.50;;;4.20;;
6985;SDS011;3533;51.246;6.850;2022-09-30T13:47:18;4.87;;;4.50;;
6985;SDS011;3533;51.246;6.850;2022-09-30T13:49:55;4.33;;;4.07;;
6985;SDS011;3533;51.246;6.850;2022-09-30T13:52:26;5.20;;;4.80;;
6985;SDS011;3533;51.246;6.850;2022-09-30T13:54:55;4.57;;;4.27;;
6985;SDS011;3533;51.246;6.850;2022-09-30T13:57:29;5.40;;;5.00;;
6985;SDS011;3533;51.246;6.850;2022-09-30T14:00:09;4.90;;;4.60;;
6985;SDS011;3533;51.246;6.850;2022-09-30T14:02:45;5.00;;;4.60;;
6985;SDS011;3533;51.246;6.850;2022-09-30T14:16:47;4.70;;;4.37;;
6985;SDS011;3533;51.246;6.850;2022-09-30T14:22:21;4.80;;;4.50;;
6985;SDS011;3533;51.246;6.850;2022-09-30T14:24:50;4.50;;;4.10;;
6985;SDS011;3533;51.246;6.850;2022-09-30T14:30:04;4.70;;;4.40;;
6985;SDS011;3533;51.246;6.850;2022-09-30T14:32:42;4.33;;;4.03;;
6985;SDS011;3533;51.246;6.850;2022-09-30T14:35:22;4.50;;;4.17;;
6985;SDS011;3533;51.246;6.850;2022-09-30T14:40:24;4.70;;;4.40;;
6985;SDS011;3533;51.246;6.850;2022-09-30T14:42:58;5.00;;;4.60;;
6985;SDS011;3533;51.246;6.850;2022-09-30T14:45:29;4.40;;;4.10;;
6985;SDS011;3533;51.246;6.850;2022-09-30T14:47:58;5.10;;;4.70;;
6985;SDS011;3533;51.246;6.850;2022-09-30T14:51:18;5.77;;;5.07;;
6985;SDS011;3533;51.246;6.850;2022-09-30T14:55:52;5.97;;;4.83;;
6985;SDS011;3533;51.246;6.850;2022-09-30T15:03:31;4.70;;;4.40;;
6985;SDS011;3533;51.246;6.850;2022-09-30T15:05:59;4.33;;;4.03;;
6985;SDS011;3533;51.246;6.850;2022-09-30T15:08:25;4.23;;;3.93;;
6985;SDS011;3533;51.246;6.850;2022-09-30T15:10:53;4.80;;;4.40;;
6985;SDS011;3533;51.246;6.850;2022-09-30T15:13:20;5.60;;;5.27;;
6985;SDS011;3533;51.246;6.850;2022-09-30T15:15:48;5.63;;;5.13;;
6985;SDS011;3533;51.246;6.850;2022-09-30T15:18:21;4.30;;;3.90;;
6985;SDS011;3533;51.246;6.850;2022-09-30T15:20:46;5.00;;;4.60;;
6985;SDS011;3533;51.246;6.850;2022-09-30T15:23:15;4.27;;;3.97;;
6985;SDS011;3533;51.246;6.850;2022-09-30T15:25:44;4.20;;;3.90;;
6985;SDS011;3533;51.246;6.850;2022-09-30T15:28:10;4.97;;;4.67;;
6985;SDS011;3533;51.246;6.850;2022-09-30T15:30:36;4.33;;;4.03;;
6985;SDS011;3533;51.246;6.850;2022-09-30T15:33:03;5.30;;;5.00;;
6985;SDS011;3533;51.246;6.850;2022-09-30T15:35:30;4.67;;;4.27;;
6985;SDS011;3533;51.246;6.850;2022-09-30T15:38:06;3.90;;;3.60;;
6985;SDS011;3533;51.246;6.850;2022-09-30T15:40:42;4.97;;;4.60;;
6985;SDS011;3533;51.246;6.850;2022-09-30T15:44:03;6.20;;;5.47;;
6985;SDS011;3533;51.246;6.850;2022-09-30T15:49:01;5.40;;;5.00;;
6985;SDS011;3533;51.246;6.850;2022-09-30T15:56:52;4.80;;;4.50;;
6985;SDS011;3533;51.246;6.850;2022-09-30T15:59:18;4.33;;;4.03;;
6985;SDS011;3533;51.246;6.850;2022-09-30T16:01:48;5.43;;;5.03;;
6985;SDS011;3533;51.246;6.850;2022-09-30T16:17:27;3.90;;;3.70;;
6985;SDS011;3533;51.246;6.850;2022-09-30T16:19:54;4.57;;;4.27;;
6985;SDS011;3533;51.246;6.850;2022-09-30T16:25:16;4.27;;;3.93;;
6985;SDS011;3533;51.246;6.850;2022-09-30T16:27:45;3.90;;;3.70;;
6985;SDS011;3533;51.246;6.850;2022-09-30T16:30:12;3.93;;;3.60;;
6985;SDS011;3533;51.246;6.850;2022-09-30T16:32:43;4.40;;;4.00;;
6985;SDS011;3533;51.246;6.850;2022-09-30T16:35:14;4.30;;;3.90;;
6985;SDS011;3533;51.246;6.850;2022-09-30T16:37:45;4.27;;;3.97;;
6985;SDS011;3533;51.246;6.850;2022-09-30T16:40:19;4.33;;;3.93;;
6985;SDS011;3533;51.246;6.850;2022-09-30T16:42:47;3.60;;;3.40;;
6985;SDS011;3533;51.246;6.850;2022-09-30T16:45:14;3.17;;;2.97;;
6985;SDS011;3533;51.246;6.850;2022-09-30T16:47:41;3.40;;;3.20;;
6985;SDS011;3533;51.246;6.850;2022-09-30T16:50:22;3.40;;;3.20;;
6985;SDS011;3533;51.246;6.850;2022-09-30T16:52:57;3.27;;;3.07;;
6985;SDS011;3533;51.246;6.850;2022-09-30T16:55:23;3.73;;;3.43;;
6985;SDS011;3533;51.246;6.850;2022-09-30T16:57:50;3.30;;;3.10;;
6985;SDS011;3533;51.246;6.850;2022-09-30T17:00:16;3.50;;;3.30;;
6985;SDS011;3533;51.246;6.850;2022-09-30T17:02:43;3.30;;;3.10;;
6985;SDS011;3533;51.246;6.850;2022-09-30T17:05:16;3.43;;;3.23;;
6985;SDS011;3533;51.246;6.850;2022-09-30T17:07:44;3.83;;;3.53;;
6985;SDS011;3533;51.246;6.850;2022-09-30T17:10:21;4.73;;;4.33;;
6985;SDS011;3533;51.246;6.850;2022-09-30T17:12:49;3.40;;;3.20;;
6985;SDS011;3533;51.246;6.850;2022-09-30T17:15:16;3.57;;;3.37;;
6985;SDS011;3533;51.246;6.850;2022-09-30T17:17:42;3.70;;;3.50;;
6985;SDS011;3533;51.246;6.850;2022-09-30T17:20:08;3.27;;;3.07;;
6985;SDS011;3533;51.246;6.850;2022-09-30T17:22:34;3.70;;;3.40;;
6985;SDS011;3533;51.246;6.850;2022-09-30T17:24:59;3.27;;;3.03;;
6985;SDS011;3533;51.246;6.850;2022-09-30T17:27:25;3.03;;;2.83;;
6985;SDS011;3533;51.246;6.850;2022-09-30T17:29:50;3.57;;;3.37;;
6985;SDS011;3533;51.246;6.850;2022-09-30T17:32:16;3.40;;;3.20;;
6985;SDS011;3533;51.246;6.850;2022-09-30T17:34:41;3.50;;;3.30;;
6985;SDS011;3533;51.246;6.850;2022-09-30T17:37:08;3.83;;;3.60;;
6985;SDS011;3533;51.246;6.850;2022-09-30T17:39:35;2.80;;;2.60;;
6985;SDS011;3533;51.246;6.850;2022-09-30T17:42:01;3.00;;;2.80;;
6985;SDS011;3533;51.246;6.850;2022-09-30T17:44:45;3.70;;;3.40;;
6985;SDS011;3533;51.246;6.850;2022-09-30T17:47:11;3.30;;;3.00;;
6985;SDS011;3533;51.246;6.850;2022-09-30T17:49:37;3.57;;;3.37;;
6985;SDS011;3533;51.246;6.850;2022-09-30T17:52:03;3.13;;;2.93;;
6985;SDS011;3533;51.246;6.850;2022-09-30T17:54:28;3.27;;;3.07;;
6985;SDS011;3533;51.246;6.850;2022-09-30T17:56:54;3.90;;;3.03;;
6985;SDS011;3533;51.246;6.850;2022-09-30T17:59:21;3.00;;;2.90;;
6985;SDS011;3533;51.246;6.850;2022-09-30T18:01:50;3.07;;;2.87;;
6985;SDS011;3533;51.246;6.850;2022-09-30T18:04:17;2.90;;;2.70;;
6985;SDS011;3533;51.246;6.850;2022-09-30T18:06:43;2.80;;;2.60;;
6985;SDS011;3533;51.246;6.850;2022-09-30T18:09:09;3.20;;;3.00;;
6985;SDS011;3533;51.246;6.850;2022-09-30T18:11:35;3.00;;;2.80;;
6985;SDS011;3533;51.246;6.850;2022-09-30T18:14:01;3.50;;;3.30;;
6985;SDS011;3533;51.246;6.850;2022-09-30T18:16:28;3.20;;;3.00;;
6985;SDS011;3533;51.246;6.850;2022-09-30T18:18:55;4.30;;;4.00;;
6985;SDS011;3533;51.246;6.850;2022-09-30T18:21:22;2.67;;;2.47;;
6985;SDS011;3533;51.246;6.850;2022-09-30T18:23:51;2.60;;;2.40;;
6985;SDS011;3533;51.246;6.850;2022-09-30T18:26:18;3.13;;;2.90;;
6985;SDS011;3533;51.246;6.850;2022-09-30T18:28:44;4.77;;;3.10;;
6985;SDS011;3533;51.246;6.850;2022-09-30T18:31:10;2.63;;;2.53;;
6985;SDS011;3533;51.246;6.850;2022-09-30T18:33:42;2.80;;;2.60;;
6985;SDS011;3533;51.246;6.850;2022-09-30T18:36:07;2.97;;;2.77;;
6985;SDS011;3533;51.246;6.850;2022-09-30T18:38:33;3.07;;;2.87;;
6985;SDS011;3533;51.246;6.850;2022-09-30T18:40:59;2.73;;;2.53;;
6985;SDS011;3533;51.246;6.850;2022-09-30T18:43:25;3.10;;;2.90;;
6985;SDS011;3533;51.246;6.850;2022-09-30T18:45:51;2.23;;;2.13;;
6985;SDS011;3533;51.246;6.850;2022-09-30T18:48:20;3.60;;;2.90;;
6985;SDS011;3533;51.246;6.850;2022-09-30T18:50:48;2.40;;;2.30;;
6985;SDS011;3533;51.246;6.850;2022-09-30T18:53:15;3.23;;;3.03;;
6985;SDS011;3533;51.246;6.850;2022-09-30T18:55:44;2.97;;;2.80;;
6985;SDS011;3533;51.246;6.850;2022-09-30T18:58:10;2.77;;;2.60;;
6985;SDS011;3533;51.246;6.850;2022-09-30T19:00:36;2.90;;;2.70;;
6985;SDS011;3533;51.246;6.850;2022-09-30T19:03:02;3.10;;;2.80;;
6985;SDS011;3533;51.246;6.850;2022-09-30T19:05:28;2.87;;;2.67;;